Time;durP1;ratioP1;P1;durP2;ratioP2;P2;SDS_P1;SDS_P2;PMS_P1;PMS_P2;Temp;Humidity;BMP_temperature;BMP_pressure;BME280_temperature;BME280_humidity;BME280_pressure;Samples;Min_cycle;Max_cycle;Signal;HPM_P1;HPM_P2
2022/03/28 00:00:10;;;;;;;23.13;13.63;;;;;;;;;;5074601;28;20833;-71
2022/03/28 00:02:44;;;;;;;28.77;15.53;;;;;;;;;;5075194;28;21005;-71
2022/03/28 00:05:13;;;;;;;42.70;19.57;;;;;;;;;;5074796;28;20467;-71
2022/03/28 00:07:44;;;;;;;34.93;16.40;;;;;;;;;;5075385;28;20545;-71
2022/03/28 00:10:13;;;;;;;35.00;21.40;;;;;;;;;;5074645;28;20733;-71
2022/03/28 00:12:41;;;;;;;41.40;18.77;;;;;;;;;;5074555;28;20725;-71
2022/03/28 00:15:09;;;;;;;43.50;23.40;;;;;;;;;;5075148;28;20490;-71
2022/03/28 00:17:37;;;;;;;36.37;21.30;;;;;;;;;;5075008;28;20539;-71
2022/03/28 00:20:06;;;;;;;28.87;16.77;;;;;;;;;;5074149;28;20471;-71
2022/03/28 00:22:34;;;;;;;29.57;16.00;;;;;;;;;;5074467;28;20818;-71
2022/03/28 00:25:02;;;;;;;29.93;14.00;;;;;;;;;;5061587;28;20446;-71
2022/03/28 00:27:30;;;;;;;35.73;17.53;;;;;;;;;;5054880;28;20464;-71
2022/03/28 00:29:58;;;;;;;44.17;23.70;;;;;;;;;;5054517;28;20556;-72
2022/03/28 00:32:26;;;;;;;42.50;19.17;;;;;;;;;;5054697;28;20519;-71
2022/03/28 00:34:55;;;;;;;33.80;13.33;;;;;;;;;;5074086;28;20543;-71
2022/03/28 00:37:24;;;;;;;44.17;21.77;;;;;;;;;;5073924;28;20700;-71
2022/03/28 00:39:52;;;;;;;49.77;26.43;;;;;;;;;;5075403;28;20544;-71
2022/03/28 00:42:19;;;;;;;50.03;24.50;;;;;;;;;;5074289;28;20476;-71
2022/03/28 00:44:51;;;;;;;47.20;29.93;;;;;;;;;;5074540;28;20448;-71
2022/03/28 00:47:19;;;;;;;33.13;20.77;;;;;;;;;;5074828;28;20445;-72
2022/03/28 00:49:46;;;;;;;50.10;23.20;;;;;;;;;;5074902;28;20444;-71
2022/03/28 00:52:14;;;;;;;49.53;27.23;;;;;;;;;;5076497;28;20444;-71
2022/03/28 00:54:44;;;;;;;55.33;33.40;;;;;;;;;;5078225;28;20850;-71
2022/03/28 00:57:12;;;;;;;58.73;30.13;;;;;;;;;;5078733;28;20814;-71
2022/03/28 00:59:40;;;;;;;48.00;28.00;;;;;;;;;;5079016;28;21421;-71
2022/03/28 01:02:08;;;;;;;49.90;30.13;;;;;;;;;;5078233;28;20449;-71
2022/03/28 01:04:37;;;;;;;44.93;20.50;;;;;;;;;;5078190;28;20487;-71
2022/03/28 01:07:06;;;;;;;52.13;27.57;;;;;;;;;;5078574;28;20472;-71
2022/03/28 01:09:34;;;;;;;44.37;21.90;;;;;;;;;;5078358;28;20463;-71
2022/03/28 01:12:04;;;;;;;51.57;27.07;;;;;;;;;;5078429;28;20449;-71
2022/03/28 01:14:32;;;;;;;43.83;21.43;;;;;;;;;;5077816;28;20527;-72
2022/03/28 01:19:55;;;;;;;35.47;24.03;;;;;;;;;;5077622;28;20475;-71
2022/03/28 01:22:24;;;;;;;44.13;29.37;;;;;;;;;;5077831;28;20857;-71
2022/03/28 01:24:52;;;;;;;47.23;26.90;;;;;;;;;;5077940;28;20514;-71
2022/03/28 01:27:32;;;;;;;34.07;21.90;;;;;;;;;;5077918;28;20857;-71
2022/03/28 01:30:00;;;;;;;40.10;25.87;;;;;;;;;;5078087;28;20490;-71
2022/03/28 01:32:28;;;;;;;45.63;23.60;;;;;;;;;;5076783;28;20495;-72
2022/03/28 01:34:56;;;;;;;33.10;23.00;;;;;;;;;;5077862;28;20515;-71
2022/03/28 01:37:26;;;;;;;35.73;19.87;;;;;;;;;;5078073;28;20456;-71
2022/03/28 01:39:54;;;;;;;37.83;24.00;;;;;;;;;;5077594;28;20461;-71
2022/03/28 01:42:27;;;;;;;41.57;24.00;;;;;;;;;;5077398;28;20453;-71
2022/03/28 01:44:55;;;;;;;35.97;19.90;;;;;;;;;;5074269;28;20743;-72
2022/03/28 01:47:23;;;;;;;29.87;17.77;;;;;;;;;;5057821;28;20457;-72
2022/03/28 01:49:50;;;;;;;34.60;18.00;;;;;;;;;;5057762;28;20580;-71
2022/03/28 01:52:19;;;;;;;28.37;18.50;;;;;;;;;;5057326;28;20575;-71
2022/03/28 01:54:48;;;;;;;41.50;22.90;;;;;;;;;;5056966;28;20488;-71
2022/03/28 01:57:16;;;;;;;38.97;25.93;;;;;;;;;;5057606;28;20543;-71
2022/03/28 01:59:44;;;;;;;29.57;18.43;;;;;;;;;;5057411;28;20595;-72
2022/03/28 02:02:11;;;;;;;32.93;19.20;;;;;;;;;;5056316;28;20462;-72
2022/03/28 02:04:39;;;;;;;32.90;18.23;;;;;;;;;;5057244;28;20457;-72
2022/03/28 02:07:07;;;;;;;46.67;31.97;;;;;;;;;;5056756;28;20458;-72
2022/03/28 02:09:38;;;;;;;56.93;39.00;;;;;;;;;;5057237;28;20496;-72
2022/03/28 02:12:08;;;;;;;38.17;25.60;;;;;;;;;;5056986;28;20523;-72
2022/03/28 02:14:36;;;;;;;44.67;29.30;;;;;;;;;;5074169;28;20489;-72
2022/03/28 02:17:06;;;;;;;43.43;24.20;;;;;;;;;;5077123;28;20522;-72
2022/03/28 02:19:34;;;;;;;36.20;21.17;;;;;;;;;;5076884;28;20781;-72
2022/03/28 02:22:01;;;;;;;43.97;31.10;;;;;;;;;;5064545;28;20476;-72
2022/03/28 02:24:29;;;;;;;46.90;31.77;;;;;;;;;;5056869;28;20916;-72
2022/03/28 02:26:57;;;;;;;44.40;35.27;;;;;;;;;;5056437;28;20527;-72
2022/03/28 02:29:26;;;;;;;47.30;38.53;;;;;;;;;;5057146;28;20511;-72
2022/03/28 02:31:54;;;;;;;38.37;24.30;;;;;;;;;;5056906;28;20469;-72
2022/03/28 02:34:22;;;;;;;34.60;24.33;;;;;;;;;;5056408;28;20485;-71
2022/03/28 02:36:50;;;;;;;28.40;16.50;;;;;;;;;;5056645;28;20465;-71
2022/03/28 02:39:18;;;;;;;40.10;30.73;;;;;;;;;;5056336;28;20496;-71
2022/03/28 02:41:46;;;;;;;42.47;30.97;;;;;;;;;;5055972;28;20457;-72
2022/03/28 02:44:17;;;;;;;40.70;35.53;;;;;;;;;;5056536;28;20453;-72
2022/03/28 02:46:47;;;;;;;43.33;27.70;;;;;;;;;;5056674;28;20849;-72
2022/03/28 02:49:15;;;;;;;38.03;30.23;;;;;;;;;;5056494;28;21082;-72
2022/03/28 02:51:43;;;;;;;37.00;33.17;;;;;;;;;;5056562;28;20497;-70
2022/03/28 02:54:11;;;;;;;40.37;36.40;;;;;;;;;;5056405;28;20441;-72
2022/03/28 02:56:39;;;;;;;21.37;19.57;;;;;;;;;;5055860;28;20733;-71
2022/03/28 02:59:07;;;;;;;25.47;22.93;;;;;;;;;;5056366;28;20468;-72
2022/03/28 03:01:35;;;;;;;12.40;11.20;;;;;;;;;;5055984;28;20915;-72
2022/03/28 03:04:05;;;;;;;19.83;15.00;;;;;;;;;;5055173;28;20473;-72
2022/03/28 03:06:39;;;;;;;18.70;16.90;;;;;;;;;;5055375;28;20446;-72
2022/03/28 03:09:07;;;;;;;21.67;19.37;;;;;;;;;;5055625;28;20457;-72
2022/03/28 03:11:35;;;;;;;19.30;17.33;;;;;;;;;;5055823;28;20445;-72
2022/03/28 03:14:05;;;;;;;18.50;12.37;;;;;;;;;;5055822;28;20549;-72
2022/03/28 03:16:33;;;;;;;17.07;15.40;;;;;;;;;;5055447;28;20481;-72
2022/03/28 03:19:00;;;;;;;19.67;17.73;;;;;;;;;;5055961;28;20936;-72
2022/03/28 03:21:30;;;;;;;15.23;13.60;;;;;;;;;;5057342;28;20583;-72
2022/03/28 03:23:58;;;;;;;16.83;15.40;;;;;;;;;;5055863;28;20791;-72
2022/03/28 03:26:26;;;;;;;21.20;19.33;;;;;;;;;;5055986;28;20468;-72
2022/03/28 03:28:55;;;;;;;18.63;16.90;;;;;;;;;;5055592;28;20462;-72
2022/03/28 03:31:25;;;;;;;22.90;20.77;;;;;;;;;;5055600;28;20441;-72
2022/03/28 03:33:54;;;;;;;21.90;20.20;;;;;;;;;;5055614;28;20568;-72
2022/03/28 03:36:22;;;;;;;17.60;16.00;;;;;;;;;;5055820;28;20909;-72
2022/03/28 03:38:51;;;;;;;19.47;17.73;;;;;;;;;;5055306;28;20538;-72
2022/03/28 03:41:19;;;;;;;13.30;12.10;;;;;;;;;;5055609;28;20449;-72
2022/03/28 03:43:47;;;;;;;11.90;10.70;;;;;;;;;;5055636;28;20469;-72
2022/03/28 03:46:15;;;;;;;13.43;12.10;;;;;;;;;;5055282;28;20472;-72
2022/03/28 03:48:43;;;;;;;17.67;16.00;;;;;;;;;;5055169;28;20803;-72
2022/03/28 03:51:11;;;;;;;13.57;12.37;;;;;;;;;;5055368;28;20460;-72
2022/03/28 03:53:38;;;;;;;22.57;21.03;;;;;;;;;;5055491;28;20460;-72
2022/03/28 03:56:08;;;;;;;14.63;13.47;;;;;;;;;;5055456;28;21181;-72
2022/03/28 03:58:35;;;;;;;12.43;11.17;;;;;;;;;;5054930;28;20438;-72
2022/03/28 04:01:04;;;;;;;11.00;10.00;;;;;;;;;;5055141;28;20549;-72
2022/03/28 04:03:33;;;;;;;11.53;10.33;;;;;;;;;;5055164;28;20830;-72
2022/03/28 04:06:01;;;;;;;25.90;23.60;;;;;;;;;;5055723;28;20488;-72
2022/03/28 04:08:28;;;;;;;19.10;17.60;;;;;;;;;;5055418;28;21053;-72
2022/03/28 04:10:56;;;;;;;22.23;20.57;;;;;;;;;;5055001;28;20465;-72
2022/03/28 04:13:26;;;;;;;31.47;28.70;;;;;;;;;;5055347;28;20457;-72
2022/03/28 04:15:54;;;;;;;17.57;16.37;;;;;;;;;;5055202;28;20496;-71
2022/03/28 04:18:21;;;;;;;14.27;12.87;;;;;;;;;;5054779;28;20540;-71
2022/03/28 04:20:49;;;;;;;16.57;15.10;;;;;;;;;;5054864;28;20481;-71
2022/03/28 04:23:17;;;;;;;18.47;17.13;;;;;;;;;;5054346;28;20452;-71
2022/03/28 04:25:45;;;;;;;28.27;25.93;;;;;;;;;;5055448;28;20453;-71
2022/03/28 04:28:13;;;;;;;23.70;21.93;;;;;;;;;;5058482;28;20453;-71
2022/03/28 04:30:42;;;;;;;31.57;29.17;;;;;;;;;;5058573;28;20750;-72
2022/03/28 04:33:11;;;;;;;19.00;17.33;;;;;;;;;;5058827;28;20460;-71
2022/03/28 04:35:41;;;;;;;19.77;17.90;;;;;;;;;;5057847;28;20485;-72
2022/03/28 04:38:09;;;;;;;18.50;16.57;;;;;;;;;;5057697;28;20729;-72
2022/03/28 04:40:37;;;;;;;22.53;20.60;;;;;;;;;;5057423;28;20485;-71
2022/03/28 04:43:06;;;;;;;17.30;14.10;;;;;;;;;;5057908;28;20560;-71
2022/03/28 04:45:34;;;;;;;15.87;14.30;;;;;;;;;;5057132;28;20464;-72
2022/03/28 04:48:03;;;;;;;18.53;13.73;;;;;;;;;;5058075;28;20460;-72
2022/03/28 04:50:31;;;;;;;18.37;16.60;;;;;;;;;;5057263;28;20555;-72
2022/03/28 04:52:59;;;;;;;18.13;16.60;;;;;;;;;;5057807;28;20523;-72
2022/03/28 04:55:27;;;;;;;21.53;19.60;;;;;;;;;;5057522;28;20901;-72
2022/03/28 04:57:55;;;;;;;20.23;18.43;;;;;;;;;;5057620;28;20453;-72
2022/03/28 05:00:26;;;;;;;11.73;8.20;;;;;;;;;;5057839;28;20556;-72
2022/03/28 05:02:55;;;;;;;20.40;18.37;;;;;;;;;;5063887;28;20490;-72
2022/03/28 05:05:30;;;;;;;23.77;21.83;;;;;;;;;;5077386;28;20448;-72
2022/03/28 05:07:58;;;;;;;24.23;22.30;;;;;;;;;;5073278;28;20474;-72
2022/03/28 05:10:26;;;;;;;12.33;11.03;;;;;;;;;;5076755;28;20518;-72
2022/03/28 05:12:54;;;;;;;20.17;18.40;;;;;;;;;;5076691;28;20459;-72
2022/03/28 05:15:24;;;;;;;15.40;14.03;;;;;;;;;;5076652;28;20484;-72
2022/03/28 05:17:52;;;;;;;12.80;11.50;;;;;;;;;;5076526;28;20559;-72
2022/03/28 05:20:21;;;;;;;16.23;14.80;;;;;;;;;;5061536;28;20886;-72
2022/03/28 05:22:51;;;;;;;11.03;9.93;;;;;;;;;;5056437;28;20520;-72
2022/03/28 05:25:20;;;;;;;17.90;16.30;;;;;;;;;;5069292;28;21116;-73
2022/03/28 05:27:49;;;;;;;16.50;15.10;;;;;;;;;;5075026;28;20460;-72
2022/03/28 05:30:18;;;;;;;13.00;12.07;;;;;;;;;;5074161;28;20536;-72
2022/03/28 05:32:46;;;;;;;26.70;24.77;;;;;;;;;;5072696;28;20805;-72
2022/03/28 05:35:14;;;;;;;30.10;27.77;;;;;;;;;;5071995;28;20484;-72
2022/03/28 05:37:42;;;;;;;24.63;22.53;;;;;;;;;;5071405;28;20460;-72
2022/03/28 05:40:13;;;;;;;25.17;23.13;;;;;;;;;;5074288;28;20968;-71
2022/03/28 05:42:41;;;;;;;15.33;13.93;;;;;;;;;;5074963;28;20472;-72
2022/03/28 05:45:12;;;;;;;16.37;15.00;;;;;;;;;;5072988;28;20482;-72
2022/03/28 05:47:40;;;;;;;15.00;13.53;;;;;;;;;;5073126;28;20930;-72
2022/03/28 05:50:15;;;;;;;20.87;18.87;;;;;;;;;;5067446;28;20588;-73
2022/03/28 05:52:47;;;;;;;32.47;29.80;;;;;;;;;;5073764;28;20531;-72
2022/03/28 05:55:22;;;;;;;27.53;25.33;;;;;;;;;;5073998;28;20480;-73
2022/03/28 05:57:55;;;;;;;20.33;18.60;;;;;;;;;;5072678;28;20484;-72
2022/03/28 06:00:23;;;;;;;30.20;27.43;;;;;;;;;;5074501;28;20453;-72
2022/03/28 06:02:54;;;;;;;25.00;22.60;;;;;;;;;;5075089;28;20460;-72
2022/03/28 06:05:26;;;;;;;29.13;26.53;;;;;;;;;;5071074;28;21102;-72
2022/03/28 06:07:56;;;;;;;32.90;30.17;;;;;;;;;;5072845;28;20959;-72
2022/03/28 06:10:32;;;;;;;24.93;22.90;;;;;;;;;;5073555;28;20486;-72
2022/03/28 06:13:49;;;;;;;32.03;29.20;;;;;;;;;;5074143;28;20444;-72
2022/03/28 06:16:19;;;;;;;25.17;23.23;;;;;;;;;;5074345;28;20928;-73
2022/03/28 06:18:48;;;;;;;33.10;30.20;;;;;;;;;;5071571;28;20532;-72
2022/03/28 06:21:18;;;;;;;33.50;30.57;;;;;;;;;;5073353;28;20877;-72
2022/03/28 06:23:46;;;;;;;24.27;21.73;;;;;;;;;;5073824;28;20450;-72
2022/03/28 06:26:19;;;;;;;17.73;15.90;;;;;;;;;;5072547;28;20463;-71
2022/03/28 06:28:49;;;;;;;28.37;26.00;;;;;;;;;;5073122;28;20710;-72
2022/03/28 06:31:18;;;;;;;35.13;32.03;;;;;;;;;;5069991;28;20479;-72
2022/03/28 06:33:57;;;;;;;27.90;25.53;;;;;;;;;;5073873;28;20884;-72
2022/03/28 06:36:25;;;;;;;22.90;21.20;;;;;;;;;;5063204;28;20492;-71
2022/03/28 06:38:57;;;;;;;26.73;25.07;;;;;;;;;;5072681;28;20864;-72
2022/03/28 06:41:31;;;;;;;34.57;31.47;;;;;;;;;;5073921;28;20487;-72
2022/03/28 06:43:59;;;;;;;38.83;35.33;;;;;;;;;;5073940;28;20458;-72
2022/03/28 06:46:30;;;;;;;32.60;29.93;;;;;;;;;;5066675;28;20523;-72
2022/03/28 06:49:10;;;;;;;40.87;37.17;;;;;;;;;;5071346;28;20562;-72
2022/03/28 06:51:37;;;;;;;36.13;33.13;;;;;;;;;;5062074;28;20489;-72
2022/03/28 06:54:08;;;;;;;49.10;44.00;;;;;;;;;;5067725;28;20471;-72
2022/03/28 06:56:45;;;;;;;42.90;39.13;;;;;;;;;;5094655;28;20491;-72
2022/03/28 06:59:14;;;;;;;47.47;42.70;;;;;;;;;;5054810;28;20542;-71
2022/03/28 07:01:43;;;;;;;34.40;31.60;;;;;;;;;;5046125;28;20838;-72
2022/03/28 07:04:12;;;;;;;31.53;28.80;;;;;;;;;;5071317;28;20468;-72
2022/03/28 07:06:42;;;;;;;36.00;33.00;;;;;;;;;;5068654;28;20525;-72
2022/03/28 07:09:13;;;;;;;48.80;43.63;;;;;;;;;;5074086;28;20441;-71
2022/03/28 07:11:45;;;;;;;39.13;35.93;;;;;;;;;;5072926;28;20583;-72
2022/03/28 07:14:16;;;;;;;57.27;51.20;;;;;;;;;;5072702;28;20864;-71
2022/03/28 07:16:52;;;;;;;45.70;41.37;;;;;;;;;;5066171;28;20495;-72
2022/03/28 07:19:24;;;;;;;45.80;41.60;;;;;;;;;;5066202;28;20448;-72
2022/03/28 07:21:54;;;;;;;27.47;25.37;;;;;;;;;;5073640;28;20737;-72
2022/03/28 07:24:22;;;;;;;26.30;23.93;;;;;;;;;;5073112;28;20888;-72
2022/03/28 07:27:11;;;;;;;44.90;41.03;;;;;;;;;;5069616;28;20462;-72
2022/03/28 07:29:49;;;;;;;34.47;31.20;;;;;;;;;;5073337;28;20737;-72
2022/03/28 07:35:28;;;;;;;38.57;35.50;;;;;;;;;;5063979;28;21160;-70
2022/03/28 07:37:57;;;;;;;40.13;31.87;;;;;;;;;;5065244;28;20472;-72
2022/03/28 07:40:27;;;;;;;28.17;25.77;;;;;;;;;;5073596;28;20492;-72
2022/03/28 07:43:07;;;;;;;29.67;26.80;;;;;;;;;;5069306;28;20444;-71
2022/03/28 07:45:39;;;;;;;37.73;34.53;;;;;;;;;;5066797;28;20868;-71
2022/03/28 07:51:09;;;;;;;35.93;32.93;;;;;;;;;;5070864;28;20594;-72
2022/03/28 07:53:39;;;;;;;46.13;41.73;;;;;;;;;;5066599;28;20460;-72
2022/03/28 07:56:09;;;;;;;42.00;38.50;;;;;;;;;;5073290;28;20495;-72
2022/03/28 07:58:39;;;;;;;40.27;36.87;;;;;;;;;;5068412;28;20876;-71
2022/03/28 08:01:10;;;;;;;33.73;30.63;;;;;;;;;;5066483;28;20457;-72
2022/03/28 08:03:44;;;;;;;34.27;31.37;;;;;;;;;;5077571;28;20495;-73
2022/03/28 08:06:37;;;;;;;46.90;42.90;;;;;;;;;;5071797;28;20924;-72
2022/03/28 08:09:09;;;;;;;41.40;37.70;;;;;;;;;;5072332;28;20900;-72
2022/03/28 08:11:37;;;;;;;44.13;40.10;;;;;;;;;;5067106;28;20769;-71
2022/03/28 08:14:09;;;;;;;39.20;35.80;;;;;;;;;;5078615;28;20464;-71
2022/03/28 08:16:37;;;;;;;28.10;25.77;;;;;;;;;;5070084;28;20554;-72
2022/03/28 08:19:05;;;;;;;21.37;18.40;;;;;;;;;;5079093;28;20525;-71
2022/03/28 08:21:35;;;;;;;24.20;20.93;;;;;;;;;;5071850;28;20457;-72
2022/03/28 08:24:07;;;;;;;32.70;29.83;;;;;;;;;;5059961;28;20480;-72
2022/03/28 08:26:39;;;;;;;52.33;45.70;;;;;;;;;;5075016;28;20459;-72
2022/03/28 08:29:17;;;;;;;74.70;66.60;;;;;;;;;;5075992;28;20559;-70
2022/03/28 08:31:50;;;;;;;51.23;46.37;;;;;;;;;;5068960;28;20508;-71
2022/03/28 08:34:27;;;;;;;43.80;39.90;;;;;;;;;;5074858;28;20536;-72
2022/03/28 08:37:03;;;;;;;39.57;36.20;;;;;;;;;;5075578;28;20476;-71
2022/03/28 08:39:31;;;;;;;50.37;45.47;;;;;;;;;;5076169;28;21214;-72
2022/03/28 08:42:00;;;;;;;34.07;31.27;;;;;;;;;;5071728;28;20452;-71
2022/03/28 08:44:34;;;;;;;29.63;26.67;;;;;;;;;;5076630;28;20466;-70
2022/03/28 08:47:10;;;;;;;14.33;13.00;;;;;;;;;;5061456;28;20461;-72
2022/03/28 08:49:42;;;;;;;21.20;18.97;;;;;;;;;;5069441;28;20456;-70
2022/03/28 08:52:12;;;;;;;17.47;14.30;;;;;;;;;;5076704;28;20842;-70
2022/03/28 08:54:44;;;;;;;23.40;21.20;;;;;;;;;;5078663;28;20463;-71
2022/03/28 08:57:18;;;;;;;31.63;28.57;;;;;;;;;;5060280;28;20477;-73
2022/03/28 08:59:56;;;;;;;22.23;19.60;;;;;;;;;;5065404;28;20570;-70
2022/03/28 09:02:33;;;;;;;26.17;23.60;;;;;;;;;;5072601;28;20486;-71
2022/03/28 09:05:04;;;;;;;25.90;22.73;;;;;;;;;;5078274;28;20452;-71
2022/03/28 09:07:35;;;;;;;34.13;30.70;;;;;;;;;;5069192;28;20453;-70
2022/03/28 09:10:16;;;;;;;52.97;47.63;;;;;;;;;;5071168;28;20460;-72
2022/03/28 09:13:16;;;;;;;50.60;45.67;;;;;;;;;;5066038;28;20460;-71
2022/03/28 09:16:05;;;;;;;44.80;40.70;;;;;;;;;;5055692;28;20470;-71
2022/03/28 09:18:35;;;;;;;36.77;33.57;;;;;;;;;;5066590;28;20981;-71
2022/03/28 09:21:05;;;;;;;47.40;43.50;;;;;;;;;;5067582;28;20459;-71
2022/03/28 09:23:35;;;;;;;42.67;38.77;;;;;;;;;;5054737;28;20518;-71
2022/03/28 09:26:07;;;;;;;38.13;35.00;;;;;;;;;;5074055;28;20460;-71
2022/03/28 09:28:46;;;;;;;35.93;33.00;;;;;;;;;;5070198;28;20710;-71
2022/03/28 09:31:23;;;;;;;48.30;43.70;;;;;;;;;;5059167;28;20526;-70
2022/03/28 09:34:01;;;;;;;33.80;31.13;;;;;;;;;;5059137;28;20475;-71
2022/03/28 09:36:41;;;;;;;48.37;44.40;;;;;;;;;;5065246;28;20476;-71
2022/03/28 09:39:16;;;;;;;49.03;44.60;;;;;;;;;;5068799;28;20547;-71
2022/03/28 09:41:45;;;;;;;46.23;42.47;;;;;;;;;;5055185;28;20480;-71
2022/03/28 09:44:15;;;;;;;42.23;38.87;;;;;;;;;;5055346;28;20607;-71
2022/03/28 09:46:45;;;;;;;49.20;45.10;;;;;;;;;;5065013;28;20450;-71
2022/03/28 09:49:25;;;;;;;32.27;29.63;;;;;;;;;;5055065;28;20574;-71
2022/03/28 09:52:04;;;;;;;31.90;29.50;;;;;;;;;;5050747;28;20450;-71
2022/03/28 09:54:45;;;;;;;48.07;44.23;;;;;;;;;;5071982;28;20492;-71
2022/03/28 09:57:16;;;;;;;40.97;38.00;;;;;;;;;;5063507;28;20579;-71
2022/03/28 09:59:44;;;;;;;38.70;35.90;;;;;;;;;;5055503;28;20457;-71
2022/03/28 10:02:24;;;;;;;45.77;41.90;;;;;;;;;;5059183;28;20462;-71
2022/03/28 10:04:57;;;;;;;43.63;40.13;;;;;;;;;;5074299;28;20561;-71
2022/03/28 10:07:29;;;;;;;38.90;36.13;;;;;;;;;;5059496;28;20453;-71
2022/03/28 10:10:00;;;;;;;45.30;41.80;;;;;;;;;;5071847;28;20503;-71
2022/03/28 10:13:08;;;;;;;54.63;49.90;;;;;;;;;;5070840;28;20816;-70
2022/03/28 10:15:43;;;;;;;47.20;43.90;;;;;;;;;;5071677;28;20835;-71
2022/03/28 10:18:19;;;;;;;27.97;26.20;;;;;;;;;;5074219;28;20476;-70
2022/03/28 10:20:53;;;;;;;19.87;18.37;;;;;;;;;;5068833;28;20465;-71
2022/03/28 10:23:24;;;;;;;19.50;18.00;;;;;;;;;;5073133;28;20497;-71
2022/03/28 10:26:03;;;;;;;31.50;29.20;;;;;;;;;;5058559;28;20524;-72
2022/03/28 10:28:32;;;;;;;28.43;26.53;;;;;;;;;;5067388;28;20475;-70
2022/03/28 10:31:23;;;;;;;40.97;38.17;;;;;;;;;;5073756;28;20461;-71
2022/03/28 10:34:01;;;;;;;26.87;25.00;;;;;;;;;;5061087;28;20548;-71
2022/03/28 10:36:46;;;;;;;33.00;30.83;;;;;;;;;;5068776;28;20468;-70
2022/03/28 10:39:37;;;;;;;36.73;34.37;;;;;;;;;;5072013;28;20453;-69
2022/03/28 10:42:09;;;;;;;16.50;15.40;;;;;;;;;;5067487;28;20528;-70
2022/03/28 10:45:01;;;;;;;25.53;23.93;;;;;;;;;;5066306;28;20886;-69
2022/03/28 10:47:48;;;;;;;32.73;30.73;;;;;;;;;;5076923;28;20543;-70
2022/03/28 10:50:31;;;;;;;15.83;14.87;;;;;;;;;;5075427;28;20500;-71
2022/03/28 10:53:19;;;;;;;38.17;35.77;;;;;;;;;;5067788;28;20937;-70
2022/03/28 10:58:53;;;;;;;25.43;24.03;;;;;;;;;;5071381;28;20543;-71
2022/03/28 11:01:31;;;;;;;34.57;32.50;;;;;;;;;;5075051;28;20555;-71
2022/03/28 11:04:28;;;;;;;;;;;;;;;;;;;;;
2022/03/28 11:07:24;;;;;;;13.57;12.57;;;;;;;;;;5054512;28;20441;-71
2022/03/28 11:10:18;;;;;;;15.90;14.90;;;;;;;;;;5036549;28;20457;-71
2022/03/28 11:12:51;;;;;;;15.63;14.63;;;;;;;;;;5045870;28;20580;-71
2022/03/28 11:18:47;;;;;;;22.87;21.47;;;;;;;;;;5066359;28;20941;-70
2022/03/28 11:21:46;;;;;;;20.73;19.57;;;;;;;;;;5060825;28;20855;-70
2022/03/28 11:36:43;;;;;;;39.97;37.33;;;;;;;;;;5071248;28;20882;-70
2022/03/28 11:42:36;;;;;;;25.80;24.10;;;;;;;;;;5062194;28;20463;-71
2022/03/28 11:45:31;;;;;;;36.20;33.93;;;;;;;;;;5060658;28;21010;-71
2022/03/28 11:48:01;;;;;;;38.80;36.50;;;;;;;;;;5086643;28;20460;-70
2022/03/28 11:50:38;;;;;;;44.70;41.90;;;;;;;;;;5071257;28;20471;-71
2022/03/28 11:53:40;;;;;;;37.67;35.37;;;;;;;;;;5073472;28;20916;-70
2022/03/28 11:56:10;;;;;;;27.80;26.20;;;;;;;;;;5073270;28;20428;-71
2022/03/28 11:58:43;;;;;;;19.23;18.23;;;;;;;;;;5070522;28;20476;-73
2022/03/28 12:01:23;;;;;;;30.33;28.43;;;;;;;;;;5069522;28;20441;-72
2022/03/28 12:03:52;;;;;;;26.47;24.73;;;;;;;;;;5072908;28;20456;-71
2022/03/28 12:06:36;;;;;;;19.73;18.73;;;;;;;;;;5062031;28;20460;-69
2022/03/28 12:09:28;;;;;;;;;;;;;;;;;;;;;
2022/03/28 12:11:58;;;;;;;33.30;31.30;;;;;;;;;;5071705;28;20860;-70
2022/03/28 12:14:32;;;;;;;33.10;31.17;;;;;;;;;;5063941;28;20935;-69
2022/03/28 12:17:02;;;;;;;45.97;43.00;;;;;;;;;;5059173;28;20453;-70
2022/03/28 12:19:58;;;;;;;34.43;32.53;;;;;;;;;;5064066;28;20445;-70
2022/03/28 12:25:32;;;;;;;42.90;40.40;;;;;;;;;;5069266;28;20448;-71
2022/03/28 12:28:01;;;;;;;43.63;41.13;;;;;;;;;;5069650;28;20455;-69
2022/03/28 12:30:50;;;;;;;23.33;21.93;;;;;;;;;;5073884;28;20453;-70
2022/03/28 12:33:19;;;;;;;33.60;31.80;;;;;;;;;;5063427;28;20556;-70
2022/03/28 12:36:11;;;;;;;7.57;6.87;;;;;;;;;;5053588;28;20457;-71
2022/03/28 12:38:41;;;;;;;35.40;33.60;;;;;;;;;;5053336;28;20480;-71
2022/03/28 12:41:12;;;;;;;28.00;26.30;;;;;;;;;;5052987;28;20483;-71
2022/03/28 12:43:41;;;;;;;16.20;15.00;;;;;;;;;;5053258;28;20453;-70
2022/03/28 12:46:16;;;;;;;16.53;15.47;;;;;;;;;;5052953;28;20531;-70
2022/03/28 12:51:40;;;;;;;33.90;31.90;;;;;;;;;;5051561;28;20449;-71
2022/03/28 12:54:12;;;;;;;29.73;28.03;;;;;;;;;;5057404;28;20453;-71
2022/03/28 12:56:56;;;;;;;10.80;10.00;;;;;;;;;;5065782;28;20472;-71
2022/03/28 12:59:46;;;;;;;16.00;14.37;;;;;;;;;;5063431;28;20500;-72
2022/03/28 13:02:29;;;;;;;24.70;23.23;;;;;;;;;;5067223;28;20526;-70
2022/03/28 13:05:09;;;;;;;44.50;42.00;;;;;;;;;;5074594;28;20460;-70
2022/03/28 13:10:28;;;;;;;26.90;25.07;;;;;;;;;;5059576;28;20453;-71
2022/03/28 13:13:03;;;;;;;23.93;22.47;;;;;;;;;;5066252;28;20450;-70
2022/03/28 13:15:36;;;;;;;22.43;21.07;;;;;;;;;;5076821;28;20457;-70
2022/03/28 13:18:07;;;;;;;23.50;21.83;;;;;;;;;;5076287;28;20492;-70
2022/03/28 13:20:36;;;;;;;18.23;16.43;;;;;;;;;;5059027;28;20963;-71
2022/03/28 13:23:27;;;;;;;18.90;17.33;;;;;;;;;;5056920;28;20540;-70
2022/03/28 13:26:18;;;;;;;20.27;18.73;;;;;;;;;;5057934;28;20857;-70
2022/03/28 13:28:48;;;;;;;17.30;15.90;;;;;;;;;;5056517;28;20865;-71
2022/03/28 13:31:30;;;;;;;20.80;19.60;;;;;;;;;;5072034;28;20788;-71
2022/03/28 13:34:05;;;;;;;38.60;36.27;;;;;;;;;;5068424;28;20559;-71
2022/03/28 13:36:41;;;;;;;42.50;40.17;;;;;;;;;;5055561;28;20551;-70
2022/03/28 13:39:17;;;;;;;40.57;38.57;;;;;;;;;;5056502;28;20792;-69
2022/03/28 13:41:46;;;;;;;24.10;22.57;;;;;;;;;;5066683;28;20456;-70
2022/03/28 13:44:18;;;;;;;22.80;21.33;;;;;;;;;;5061838;28;20527;-71
2022/03/28 13:46:48;;;;;;;20.17;18.63;;;;;;;;;;5055586;28;20480;-70
2022/03/28 13:49:35;;;;;;;16.50;15.47;;;;;;;;;;5064889;28;20519;-70
2022/03/28 13:52:07;;;;;;;23.53;21.90;;;;;;;;;;5071602;28;20457;-71
2022/03/28 13:54:40;;;;;;;20.20;18.77;;;;;;;;;;5059235;28;20882;-70
2022/03/28 13:57:13;;;;;;;28.47;26.73;;;;;;;;;;5060184;28;20595;-70
2022/03/28 13:59:58;;;;;;;23.20;21.40;;;;;;;;;;5056419;28;20481;-71
2022/03/28 14:02:30;;;;;;;34.43;32.30;;;;;;;;;;5067661;28;20563;-70
2022/03/28 14:05:13;;;;;;;36.60;33.93;;;;;;;;;;5072881;28;20533;-71
2022/03/28 14:08:03;;;;;;;27.93;26.40;;;;;;;;;;5068916;28;20535;-71
2022/03/28 14:10:50;;;;;;;30.00;28.07;;;;;;;;;;5066302;28;20546;-70
2022/03/28 14:13:25;;;;;;;30.50;28.80;;;;;;;;;;5074504;28;20452;-71
2022/03/28 14:16:06;;;;;;;33.63;31.87;;;;;;;;;;5070853;28;20463;-70
2022/03/28 14:18:50;;;;;;;36.97;33.90;;;;;;;;;;5073620;28;20583;-68
2022/03/28 14:21:22;;;;;;;32.37;30.63;;;;;;;;;;5061140;28;20856;-72
2022/03/28 14:23:50;;;;;;;35.53;33.50;;;;;;;;;;5069396;28;20497;-71
2022/03/28 14:26:21;;;;;;;38.37;36.40;;;;;;;;;;5068140;28;20468;-71
2022/03/28 14:28:49;;;;;;;30.67;28.97;;;;;;;;;;5073604;28;20445;-70
2022/03/28 14:31:20;;;;;;;27.13;25.67;;;;;;;;;;5072620;28;20563;-69
2022/03/28 14:33:58;;;;;;;35.63;33.60;;;;;;;;;;5082011;28;20484;-71
2022/03/28 14:36:27;;;;;;;51.10;47.87;;;;;;;;;;5055142;28;20445;-71
2022/03/28 14:39:00;;;;;;;22.50;21.13;;;;;;;;;;5057005;28;20488;-69
2022/03/28 14:41:31;;;;;;;23.83;22.40;;;;;;;;;;5065914;28;20469;-71
2022/03/28 14:44:02;;;;;;;21.93;20.73;;;;;;;;;;5068093;28;20515;-71
2022/03/28 14:49:21;;;;;;;36.80;34.53;;;;;;;;;;5068633;28;20445;-71
2022/03/28 14:51:53;;;;;;;38.63;33.07;;;;;;;;;;5058595;28;20560;-71
2022/03/28 14:54:25;;;;;;;41.30;38.57;;;;;;;;;;5064782;28;20446;-68
2022/03/28 14:56:54;;;;;;;42.63;39.70;;;;;;;;;;5070079;28;20454;-70
2022/03/28 14:59:23;;;;;;;42.60;40.07;;;;;;;;;;5072920;28;20485;-70
2022/03/28 15:01:53;;;;;;;44.60;41.93;;;;;;;;;;5070381;28;20461;-71
2022/03/28 15:04:21;;;;;;;46.17;43.53;;;;;;;;;;5062242;28;20553;-71
2022/03/28 15:06:49;;;;;;;51.43;47.73;;;;;;;;;;5073630;28;20460;-71
2022/03/28 15:09:21;;;;;;;42.07;39.50;;;;;;;;;;5066679;28;20721;-72
2022/03/28 15:11:53;;;;;;;49.93;46.70;;;;;;;;;;5074488;28;20448;-71
2022/03/28 15:14:22;;;;;;;48.07;45.27;;;;;;;;;;5067513;28;20448;-72
2022/03/28 15:16:57;;;;;;;56.33;52.50;;;;;;;;;;5065611;28;20437;-70
2022/03/28 15:19:27;;;;;;;52.70;49.07;;;;;;;;;;5068256;28;20935;-70
2022/03/28 15:21:56;;;;;;;39.37;37.07;;;;;;;;;;5068319;28;20441;-70
2022/03/28 15:24:29;;;;;;;37.60;34.90;;;;;;;;;;5058304;28;20494;-71
2022/03/28 15:27:03;;;;;;;28.77;26.87;;;;;;;;;;5073392;28;20472;-71
2022/03/28 15:29:32;;;;;;;38.87;36.53;;;;;;;;;;5070890;28;20761;-70
2022/03/28 15:32:02;;;;;;;40.00;37.20;;;;;;;;;;5071666;28;20607;-70